Pagrindinis puslapis
METAR-TAF:

METAR-TAF

Oro uostai :

Dubajaus tarptautinis oro uostas

Dubajus, Jungtiniai Arabų Emyratai

platuma: 25-15-10N, ilguma: 055-21-52E, Aukštis: 8 m

Dabartinis oras

Ataskaita buvo paskelbta 47 minutes, ne 07:00 UTC
Vėjas 14 kt iš Vakarų, svyruoja nuo Pietų ir Šiaurės Vakarų
Temperatūra 36°C
Drėgmė 39%
Slėgis 1002 hPa
Matomumas 10 km arba daugiau
nėra debesų žemiau 1500 m ir nėra kamuolinių lietaus debesų

METAR: OMDB 240700Z 28014KT 190V320 CAVOK 36/20 Q1002 NOSIG

Laikas: 11:47 (07:47 UTC)

Prognozė

Ataskaita buvo paskelbta 2 valandos ir 47 minutes, ne 05:00 UTC
Prognozė galioja nuo 24 metu 06 UTC su 25 metu 12 UTC
Vėjas 15 kt iš Vakarų
Matomumas 10 km arba daugiau
nėra debesų žemiau 1500 m ir nėra kamuolinių lietaus debesų
Tapsmas
nuo 24 metu 16 UTC su 24 metu 18 UTC
Vėjas 8 kt iš Pietų/Pietvakarių
Tapsmas
nuo 25 metu 07 UTC su 25 metu 09 UTC
Vėjas 12 kt iš Vakarų/Šiaurės Vakarų

TAF: OMDB 240500Z 2406/2512 28015KT CAVOK BECMG 2416/2418 20008KT BECMG 2507/2509 29012KT

Orai ataskaitas ir orų prognozės (METAR, TAF).

turimą stotys yra geltonos ir raudonos taškus žemėlapyje.

Perkelti pele per norėdami pamatyti stoties vardą.

Tada spustelėkite, norėdami matyti oro stebėjimo ir prognozės.

Norėdami pakeisti žemėlapį: spustelėkite ant žalios mygtukų su juodo kryžiaus žemyn,; žalią mygtuką su brūkšneliu, jei norite nutolinti; arba žalių rodyklių gretimoms žemėlapius.


METAR-TAF: